sensor_id;sensor_type;location;lat;lon;timestamp;P1;durP1;ratioP1;P2;durP2;ratioP2
66830;SDS011;53739;44.224;22.528;2022-12-16T00:19:57;180.10;;;97.32;;
66830;SDS011;53739;44.224;22.528;2022-12-16T00:25:34;313.83;;;147.90;;
66830;SDS011;53739;44.224;22.528;2022-12-16T00:49:26;185.70;;;84.68;;
66830;SDS011;53739;44.224;22.528;2022-12-16T01:12:24;314.85;;;144.48;;
66830;SDS011;53739;44.224;22.528;2022-12-16T06:48:21;455.08;;;199.77;;
66830;SDS011;53739;44.224;22.528;2022-12-16T06:51:06;376.83;;;185.45;;
66830;SDS011;53739;44.224;22.528;2022-12-16T06:53:50;468.27;;;225.88;;
66830;SDS011;53739;44.224;22.528;2022-12-16T06:56:40;530.90;;;257.77;;
66830;SDS011;53739;44.224;22.528;2022-12-16T07:16:58;303.80;;;137.40;;
66830;SDS011;53739;44.224;22.528;2022-12-16T07:23:14;323.92;;;155.52;;
66830;SDS011;53739;44.224;22.528;2022-12-16T07:56:51;515.30;;;275.98;;
66830;SDS011;53739;44.224;22.528;2022-12-16T07:59:35;525.15;;;283.23;;
66830;SDS011;53739;44.224;22.528;2022-12-16T08:02:34;499.85;;;256.88;;
66830;SDS011;53739;44.224;22.528;2022-12-16T08:08:42;543.03;;;295.95;;
66830;SDS011;53739;44.224;22.528;2022-12-16T08:11:26;446.52;;;241.15;;
66830;SDS011;53739;44.224;22.528;2022-12-16T08:14:11;562.90;;;333.98;;
66830;SDS011;53739;44.224;22.528;2022-12-16T08:16:55;541.22;;;321.50;;
66830;SDS011;53739;44.224;22.528;2022-12-16T08:19:38;531.80;;;325.23;;
66830;SDS011;53739;44.224;22.528;2022-12-16T08:29:32;683.53;;;425.20;;
66830;SDS011;53739;44.224;22.528;2022-12-16T08:32:16;662.67;;;413.10;;
66830;SDS011;53739;44.224;22.528;2022-12-16T08:42:39;487.02;;;261.02;;
66830;SDS011;53739;44.224;22.528;2022-12-16T09:21:00;670.50;;;438.73;;
66830;SDS011;53739;44.224;22.528;2022-12-16T09:24:06;669.33;;;444.17;;
66830;SDS011;53739;44.224;22.528;2022-12-16T09:34:06;727.78;;;440.27;;
66830;SDS011;53739;44.224;22.528;2022-12-16T10:01:21;573.72;;;354.35;;
66830;SDS011;53739;44.224;22.528;2022-12-16T10:04:12;523.10;;;319.08;;
66830;SDS011;53739;44.224;22.528;2022-12-16T10:07:16;558.00;;;353.33;;
66830;SDS011;53739;44.224;22.528;2022-12-16T13:57:43;212.50;;;79.35;;
66830;SDS011;53739;44.224;22.528;2022-12-16T14:27:57;159.57;;;95.45;;
66830;SDS011;53739;44.224;22.528;2022-12-16T14:30:45;158.25;;;91.85;;
66830;SDS011;53739;44.224;22.528;2022-12-16T14:49:03;205.20;;;118.30;;
66830;SDS011;53739;44.224;22.528;2022-12-16T15:08:51;231.93;;;139.60;;
66830;SDS011;53739;44.224;22.528;2022-12-16T16:14:41;274.20;;;158.60;;
66830;SDS011;53739;44.224;22.528;2022-12-16T18:47:16;246.43;;;147.68;;
66830;SDS011;53739;44.224;22.528;2022-12-16T18:50:00;355.33;;;216.27;;
66830;SDS011;53739;44.224;22.528;2022-12-16T18:52:45;418.85;;;266.20;;
66830;SDS011;53739;44.224;22.528;2022-12-16T19:11:57;267.65;;;162.93;;
66830;SDS011;53739;44.224;22.528;2022-12-16T19:14:41;375.45;;;236.70;;
66830;SDS011;53739;44.224;22.528;2022-12-16T19:17:25;336.58;;;209.00;;
66830;SDS011;53739;44.224;22.528;2022-12-16T19:20:10;339.45;;;210.02;;
66830;SDS011;53739;44.224;22.528;2022-12-16T19:22:54;347.48;;;212.40;;
66830;SDS011;53739;44.224;22.528;2022-12-16T19:25:38;391.92;;;226.65;;
66830;SDS011;53739;44.224;22.528;2022-12-16T19:28:22;323.38;;;193.52;;
66830;SDS011;53739;44.224;22.528;2022-12-16T19:31:06;298.48;;;177.82;;
66830;SDS011;53739;44.224;22.528;2022-12-16T19:33:54;300.17;;;178.82;;
66830;SDS011;53739;44.224;22.528;2022-12-16T19:36:39;357.17;;;215.25;;
66830;SDS011;53739;44.224;22.528;2022-12-16T19:39:24;470.00;;;298.15;;
66830;SDS011;53739;44.224;22.528;2022-12-16T19:42:08;437.85;;;274.50;;
66830;SDS011;53739;44.224;22.528;2022-12-16T19:44:54;419.95;;;262.27;;
66830;SDS011;53739;44.224;22.528;2022-12-16T19:47:38;484.30;;;302.73;;
66830;SDS011;53739;44.224;22.528;2022-12-16T19:50:22;478.00;;;291.45;;
66830;SDS011;53739;44.224;22.528;2022-12-16T19:53:07;606.45;;;384.83;;
66830;SDS011;53739;44.224;22.528;2022-12-16T19:55:55;486.80;;;307.13;;
66830;SDS011;53739;44.224;22.528;2022-12-16T19:58:40;511.58;;;330.75;;
66830;SDS011;53739;44.224;22.528;2022-12-16T20:01:25;549.15;;;327.70;;
66830;SDS011;53739;44.224;22.528;2022-12-16T20:04:10;508.45;;;307.05;;
66830;SDS011;53739;44.224;22.528;2022-12-16T20:06:54;499.23;;;282.88;;
66830;SDS011;53739;44.224;22.528;2022-12-16T20:09:38;568.97;;;299.58;;
66830;SDS011;53739;44.224;22.528;2022-12-16T20:12:42;428.88;;;233.52;;
66830;SDS011;53739;44.224;22.528;2022-12-16T20:15:26;344.92;;;196.90;;
66830;SDS011;53739;44.224;22.528;2022-12-16T20:18:21;283.00;;;163.07;;
66830;SDS011;53739;44.224;22.528;2022-12-16T20:21:05;287.50;;;162.18;;
66830;SDS011;53739;44.224;22.528;2022-12-16T20:23:49;422.13;;;232.90;;
66830;SDS011;53739;44.224;22.528;2022-12-16T20:26:34;401.63;;;227.57;;
66830;SDS011;53739;44.224;22.528;2022-12-16T20:29:20;297.42;;;174.10;;
66830;SDS011;53739;44.224;22.528;2022-12-16T20:32:09;314.30;;;187.05;;
66830;SDS011;53739;44.224;22.528;2022-12-16T20:34:53;336.85;;;202.77;;
66830;SDS011;53739;44.224;22.528;2022-12-16T20:37:37;403.08;;;239.07;;
66830;SDS011;53739;44.224;22.528;2022-12-16T20:40:22;447.52;;;266.83;;
66830;SDS011;53739;44.224;22.528;2022-12-16T20:43:06;441.58;;;258.75;;
66830;SDS011;53739;44.224;22.528;2022-12-16T20:45:53;445.10;;;268.75;;
66830;SDS011;53739;44.224;22.528;2022-12-16T20:48:38;391.45;;;231.32;;
66830;SDS011;53739;44.224;22.528;2022-12-16T20:51:22;460.50;;;258.13;;
66830;SDS011;53739;44.224;22.528;2022-12-16T20:54:08;553.15;;;325.83;;
66830;SDS011;53739;44.224;22.528;2022-12-16T20:56:53;416.20;;;247.65;;
66830;SDS011;53739;44.224;22.528;2022-12-16T20:59:37;338.80;;;203.63;;
66830;SDS011;53739;44.224;22.528;2022-12-16T21:02:21;340.75;;;192.73;;
66830;SDS011;53739;44.224;22.528;2022-12-16T21:05:06;403.88;;;228.57;;
66830;SDS011;53739;44.224;22.528;2022-12-16T21:07:51;391.77;;;231.18;;
66830;SDS011;53739;44.224;22.528;2022-12-16T21:10:36;362.13;;;219.40;;
66830;SDS011;53739;44.224;22.528;2022-12-16T21:13:24;463.98;;;273.55;;
66830;SDS011;53739;44.224;22.528;2022-12-16T21:16:08;447.80;;;268.50;;
66830;SDS011;53739;44.224;22.528;2022-12-16T21:18:53;486.63;;;283.45;;
66830;SDS011;53739;44.224;22.528;2022-12-16T21:28:21;483.10;;;295.20;;
66830;SDS011;53739;44.224;22.528;2022-12-16T21:31:05;477.35;;;298.20;;
66830;SDS011;53739;44.224;22.528;2022-12-16T21:33:49;436.88;;;266.05;;
66830;SDS011;53739;44.224;22.528;2022-12-16T21:36:35;460.08;;;272.02;;
66830;SDS011;53739;44.224;22.528;2022-12-16T21:39:19;495.65;;;324.75;;
66830;SDS011;53739;44.224;22.528;2022-12-16T21:42:05;626.92;;;382.48;;
66830;SDS011;53739;44.224;22.528;2022-12-16T21:44:50;576.30;;;345.38;;
66830;SDS011;53739;44.224;22.528;2022-12-16T21:47:34;518.22;;;307.85;;
66830;SDS011;53739;44.224;22.528;2022-12-16T21:50:18;440.10;;;261.75;;
66830;SDS011;53739;44.224;22.528;2022-12-16T21:53:02;427.70;;;248.60;;
66830;SDS011;53739;44.224;22.528;2022-12-16T21:55:52;411.20;;;239.80;;
66830;SDS011;53739;44.224;22.528;2022-12-16T21:58:37;348.20;;;211.38;;
66830;SDS011;53739;44.224;22.528;2022-12-16T22:01:22;415.98;;;226.40;;
66830;SDS011;53739;44.224;22.528;2022-12-16T22:04:06;332.40;;;185.88;;
66830;SDS011;53739;44.224;22.528;2022-12-16T22:06:51;289.02;;;158.38;;
66830;SDS011;53739;44.224;22.528;2022-12-16T22:09:36;276.52;;;158.77;;
66830;SDS011;53739;44.224;22.528;2022-12-16T22:12:19;380.23;;;210.88;;
66830;SDS011;53739;44.224;22.528;2022-12-16T22:15:04;366.33;;;194.85;;
66830;SDS011;53739;44.224;22.528;2022-12-16T22:17:48;365.70;;;205.27;;
66830;SDS011;53739;44.224;22.528;2022-12-16T22:20:32;279.02;;;151.35;;
66830;SDS011;53739;44.224;22.528;2022-12-16T22:23:16;242.30;;;137.82;;
66830;SDS011;53739;44.224;22.528;2022-12-16T22:26:01;422.10;;;246.18;;
66830;SDS011;53739;44.224;22.528;2022-12-16T22:28:45;446.08;;;246.30;;
66830;SDS011;53739;44.224;22.528;2022-12-16T22:31:29;355.27;;;189.32;;
66830;SDS011;53739;44.224;22.528;2022-12-16T22:34:13;372.92;;;200.32;;
66830;SDS011;53739;44.224;22.528;2022-12-16T22:36:58;373.23;;;201.50;;
66830;SDS011;53739;44.224;22.528;2022-12-16T22:39:42;355.60;;;188.10;;
66830;SDS011;53739;44.224;22.528;2022-12-16T22:42:27;252.88;;;134.07;;
66830;SDS011;53739;44.224;22.528;2022-12-16T22:45:11;213.82;;;109.57;;
66830;SDS011;53739;44.224;22.528;2022-12-16T22:47:56;232.05;;;118.97;;
66830;SDS011;53739;44.224;22.528;2022-12-16T22:50:40;227.57;;;121.03;;
66830;SDS011;53739;44.224;22.528;2022-12-16T22:53:25;247.90;;;123.22;;
66830;SDS011;53739;44.224;22.528;2022-12-16T22:56:09;272.67;;;128.90;;
66830;SDS011;53739;44.224;22.528;2022-12-16T22:58:53;322.08;;;163.35;;
66830;SDS011;53739;44.224;22.528;2022-12-16T23:01:38;283.40;;;149.60;;
66830;SDS011;53739;44.224;22.528;2022-12-16T23:04:22;496.15;;;262.85;;
66830;SDS011;53739;44.224;22.528;2022-12-16T23:07:07;309.95;;;156.65;;
66830;SDS011;53739;44.224;22.528;2022-12-16T23:09:52;360.75;;;184.98;;
66830;SDS011;53739;44.224;22.528;2022-12-16T23:12:38;346.55;;;177.23;;
66830;SDS011;53739;44.224;22.528;2022-12-16T23:15:23;285.30;;;151.40;;
66830;SDS011;53739;44.224;22.528;2022-12-16T23:18:07;313.52;;;158.05;;
66830;SDS011;53739;44.224;22.528;2022-12-16T23:20:51;293.40;;;156.85;;
66830;SDS011;53739;44.224;22.528;2022-12-16T23:23:36;278.27;;;145.30;;
66830;SDS011;53739;44.224;22.528;2022-12-16T23:26:20;320.02;;;156.77;;
66830;SDS011;53739;44.224;22.528;2022-12-16T23:29:05;251.00;;;130.88;;
66830;SDS011;53739;44.224;22.528;2022-12-16T23:31:49;318.23;;;156.60;;
66830;SDS011;53739;44.224;22.528;2022-12-16T23:34:34;260.30;;;136.73;;
66830;SDS011;53739;44.224;22.528;2022-12-16T23:37:18;401.95;;;211.73;;
66830;SDS011;53739;44.224;22.528;2022-12-16T23:40:03;423.23;;;216.57;;
66830;SDS011;53739;44.224;22.528;2022-12-16T23:42:48;393.15;;;212.20;;
66830;SDS011;53739;44.224;22.528;2022-12-16T23:45:49;437.60;;;239.40;;
66830;SDS011;53739;44.224;22.528;2022-12-16T23:48:33;336.13;;;185.70;;
66830;SDS011;53739;44.224;22.528;2022-12-16T23:51:18;309.13;;;170.38;;
66830;SDS011;53739;44.224;22.528;2022-12-16T23:54:02;443.42;;;244.35;;
66830;SDS011;53739;44.224;22.528;2022-12-16T23:56:46;376.20;;;206.82;;
66830;SDS011;53739;44.224;22.528;2022-12-16T23:59:31;304.05;;;163.02;;
